sensor_id;sensor_type;location;lat;lon;timestamp;temperature;humidity
9723;DHT22;4900;49.306;8.500;2022-07-29T00:02:14;23.31;49.22
9723;DHT22;4900;49.306;8.500;2022-07-29T00:05:17;23.26;49.21
9723;DHT22;4900;49.306;8.500;2022-07-29T00:08:20;23.24;49.23
9723;DHT22;4900;49.306;8.500;2022-07-29T00:11:23;23.26;49.40
9723;DHT22;4900;49.306;8.500;2022-07-29T00:14:27;23.26;49.65
9723;DHT22;4900;49.306;8.500;2022-07-29T00:17:31;23.23;50.03
9723;DHT22;4900;49.306;8.500;2022-07-29T00:20:34;23.26;50.42
9723;DHT22;4900;49.306;8.500;2022-07-29T00:23:37;23.24;50.40
9723;DHT22;4900;49.306;8.500;2022-07-29T00:26:39;23.22;50.63
9723;DHT22;4900;49.306;8.500;2022-07-29T00:29:44;23.22;51.81
9723;DHT22;4900;49.306;8.500;2022-07-29T00:32:47;23.16;52.33
9723;DHT22;4900;49.306;8.500;2022-07-29T00:35:50;23.16;52.64
9723;DHT22;4900;49.306;8.500;2022-07-29T00:38:53;23.12;53.02
9723;DHT22;4900;49.306;8.500;2022-07-29T00:41:56;23.07;53.43
9723;DHT22;4900;49.306;8.500;2022-07-29T00:44:59;23.04;53.30
9723;DHT22;4900;49.306;8.500;2022-07-29T00:48:03;23.04;53.47
9723;DHT22;4900;49.306;8.500;2022-07-29T00:51:07;23.06;53.62
9723;DHT22;4900;49.306;8.500;2022-07-29T00:54:10;23.03;54.32
9723;DHT22;4900;49.306;8.500;2022-07-29T00:57:15;22.98;54.65
9723;DHT22;4900;49.306;8.500;2022-07-29T01:00:21;22.99;54.81
9723;DHT22;4900;49.306;8.500;2022-07-29T01:03:25;23.03;55.04
9723;DHT22;4900;49.306;8.500;2022-07-29T01:06:28;23.03;55.27
9723;DHT22;4900;49.306;8.500;2022-07-29T01:09:32;23.07;55.22
9723;DHT22;4900;49.306;8.500;2022-07-29T01:12:37;23.07;55.49
9723;DHT22;4900;49.306;8.500;2022-07-29T01:15:49;23.07;55.81
9723;DHT22;4900;49.306;8.500;2022-07-29T01:18:58;23.06;56.02
9723;DHT22;4900;49.306;8.500;2022-07-29T01:31:55;23.09;55.68
9723;DHT22;4900;49.306;8.500;2022-07-29T01:38:24;22.99;55.99
9723;DHT22;4900;49.306;8.500;2022-07-29T01:41:31;22.98;56.09
9723;DHT22;4900;49.306;8.500;2022-07-29T01:44:50;22.95;56.47
9723;DHT22;4900;49.306;8.500;2022-07-29T01:51:05;22.85;57.16
9723;DHT22;4900;49.306;8.500;2022-07-29T01:54:18;22.82;57.27
9723;DHT22;4900;49.306;8.500;2022-07-29T01:57:28;22.72;57.44
9723;DHT22;4900;49.306;8.500;2022-07-29T02:00:33;22.71;57.26
9723;DHT22;4900;49.306;8.500;2022-07-29T02:03:38;22.68;57.17
9723;DHT22;4900;49.306;8.500;2022-07-29T02:06:43;22.65;57.50
9723;DHT22;4900;49.306;8.500;2022-07-29T02:09:47;22.62;57.36
9723;DHT22;4900;49.306;8.500;2022-07-29T02:12:54;22.55;57.56
9723;DHT22;4900;49.306;8.500;2022-07-29T02:15:57;22.55;57.53
9723;DHT22;4900;49.306;8.500;2022-07-29T02:19:02;22.50;57.67
9723;DHT22;4900;49.306;8.500;2022-07-29T02:22:06;22.45;58.04
9723;DHT22;4900;49.306;8.500;2022-07-29T02:25:12;22.44;58.71
9723;DHT22;4900;49.306;8.500;2022-07-29T02:28:17;22.37;59.20
9723;DHT22;4900;49.306;8.500;2022-07-29T02:31:23;22.30;59.27
9723;DHT22;4900;49.306;8.500;2022-07-29T02:34:28;22.24;59.59
9723;DHT22;4900;49.306;8.500;2022-07-29T02:37:32;22.24;60.05
9723;DHT22;4900;49.306;8.500;2022-07-29T02:40:38;22.24;60.26
9723;DHT22;4900;49.306;8.500;2022-07-29T02:43:43;22.19;60.35
9723;DHT22;4900;49.306;8.500;2022-07-29T02:50:13;22.16;60.80
9723;DHT22;4900;49.306;8.500;2022-07-29T02:53:22;22.19;60.89
9723;DHT22;4900;49.306;8.500;2022-07-29T02:56:28;22.19;61.27
9723;DHT22;4900;49.306;8.500;2022-07-29T02:59:39;22.16;61.18
9723;DHT22;4900;49.306;8.500;2022-07-29T03:02:45;22.13;61.42
9723;DHT22;4900;49.306;8.500;2022-07-29T03:05:48;22.08;61.36
9723;DHT22;4900;49.306;8.500;2022-07-29T03:08:51;22.06;61.19
9723;DHT22;4900;49.306;8.500;2022-07-29T03:11:55;22.00;61.38
9723;DHT22;4900;49.306;8.500;2022-07-29T03:15:00;22.00;61.38
9723;DHT22;4900;49.306;8.500;2022-07-29T03:18:05;21.92;61.67
9723;DHT22;4900;49.306;8.500;2022-07-29T03:21:08;21.91;61.86
9723;DHT22;4900;49.306;8.500;2022-07-29T03:24:34;21.83;62.27
9723;DHT22;4900;49.306;8.500;2022-07-29T03:27:37;21.81;62.55
9723;DHT22;4900;49.306;8.500;2022-07-29T03:30:40;21.76;62.96
9723;DHT22;4900;49.306;8.500;2022-07-29T03:33:42;21.68;63.42
9723;DHT22;4900;49.306;8.500;2022-07-29T03:36:46;21.64;63.34
9723;DHT22;4900;49.306;8.500;2022-07-29T03:39:50;21.59;63.23
9723;DHT22;4900;49.306;8.500;2022-07-29T03:42:55;21.55;63.34
9723;DHT22;4900;49.306;8.500;2022-07-29T03:45:59;21.55;63.28
9723;DHT22;4900;49.306;8.500;2022-07-29T03:49:04;21.50;63.41
9723;DHT22;4900;49.306;8.500;2022-07-29T03:52:10;21.46;63.63
9723;DHT22;4900;49.306;8.500;2022-07-29T03:55:15;21.38;63.75
9723;DHT22;4900;49.306;8.500;2022-07-29T03:58:19;21.37;63.98
9723;DHT22;4900;49.306;8.500;2022-07-29T04:01:23;21.34;64.17
9723;DHT22;4900;49.306;8.500;2022-07-29T04:04:27;21.31;64.19
9723;DHT22;4900;49.306;8.500;2022-07-29T04:07:30;21.26;64.66
9723;DHT22;4900;49.306;8.500;2022-07-29T04:10:33;21.20;65.02
9723;DHT22;4900;49.306;8.500;2022-07-29T04:13:37;21.21;65.29
9723;DHT22;4900;49.306;8.500;2022-07-29T04:16:40;21.24;65.58
9723;DHT22;4900;49.306;8.500;2022-07-29T04:19:43;21.23;65.83
9723;DHT22;4900;49.306;8.500;2022-07-29T04:22:45;21.27;65.92
9723;DHT22;4900;49.306;8.500;2022-07-29T04:25:48;21.30;66.26
9723;DHT22;4900;49.306;8.500;2022-07-29T04:28:52;21.30;66.34
9723;DHT22;4900;49.306;8.500;2022-07-29T04:31:55;21.33;66.21
9723;DHT22;4900;49.306;8.500;2022-07-29T04:34:57;21.34;66.06
9723;DHT22;4900;49.306;8.500;2022-07-29T04:38:00;21.37;66.16
9723;DHT22;4900;49.306;8.500;2022-07-29T04:41:05;21.40;66.06
9723;DHT22;4900;49.306;8.500;2022-07-29T04:44:09;21.46;65.96
9723;DHT22;4900;49.306;8.500;2022-07-29T04:47:12;21.46;65.79
9723;DHT22;4900;49.306;8.500;2022-07-29T04:50:16;21.48;65.57
9723;DHT22;4900;49.306;8.500;2022-07-29T04:53:19;21.53;65.32
9723;DHT22;4900;49.306;8.500;2022-07-29T04:56:22;21.58;65.02
9723;DHT22;4900;49.306;8.500;2022-07-29T04:59:25;21.62;64.73
9723;DHT22;4900;49.306;8.500;2022-07-29T05:02:29;21.66;64.86
9723;DHT22;4900;49.306;8.500;2022-07-29T05:05:32;21.71;64.69
9723;DHT22;4900;49.306;8.500;2022-07-29T05:08:36;21.76;64.67
9723;DHT22;4900;49.306;8.500;2022-07-29T05:11:39;21.83;64.85
9723;DHT22;4900;49.306;8.500;2022-07-29T05:14:43;21.89;64.54
9723;DHT22;4900;49.306;8.500;2022-07-29T05:17:46;21.98;64.34
9723;DHT22;4900;49.306;8.500;2022-07-29T05:20:49;22.08;64.02
9723;DHT22;4900;49.306;8.500;2022-07-29T05:23:52;22.16;63.67
9723;DHT22;4900;49.306;8.500;2022-07-29T05:26:55;22.26;63.41
9723;DHT22;4900;49.306;8.500;2022-07-29T05:29:58;22.34;63.03
9723;DHT22;4900;49.306;8.500;2022-07-29T05:33:01;22.44;62.88
9723;DHT22;4900;49.306;8.500;2022-07-29T05:36:04;22.51;62.76
9723;DHT22;4900;49.306;8.500;2022-07-29T05:39:10;22.58;62.36
9723;DHT22;4900;49.306;8.500;2022-07-29T05:42:14;22.67;61.99
9723;DHT22;4900;49.306;8.500;2022-07-29T05:45:17;22.83;61.82
9723;DHT22;4900;49.306;8.500;2022-07-29T05:48:20;23.02;61.67
9723;DHT22;4900;49.306;8.500;2022-07-29T05:51:23;23.17;61.03
9723;DHT22;4900;49.306;8.500;2022-07-29T05:54:26;23.38;60.33
9723;DHT22;4900;49.306;8.500;2022-07-29T05:57:29;23.64;59.58
9723;DHT22;4900;49.306;8.500;2022-07-29T06:00:32;23.82;59.03
9723;DHT22;4900;49.306;8.500;2022-07-29T06:03:35;24.06;58.38
9723;DHT22;4900;49.306;8.500;2022-07-29T06:06:40;24.30;57.90
9723;DHT22;4900;49.306;8.500;2022-07-29T06:09:43;24.76;56.95
9723;DHT22;4900;49.306;8.500;2022-07-29T06:12:46;25.30;55.60
9723;DHT22;4900;49.306;8.500;2022-07-29T06:15:49;25.68;54.63
9723;DHT22;4900;49.306;8.500;2022-07-29T06:18:52;25.82;54.26
9723;DHT22;4900;49.306;8.500;2022-07-29T06:21:55;25.96;54.10
9723;DHT22;4900;49.306;8.500;2022-07-29T06:24:58;26.67;52.87
9723;DHT22;4900;49.306;8.500;2022-07-29T06:28:01;27.10;51.76
9723;DHT22;4900;49.306;8.500;2022-07-29T06:31:05;27.20;51.49
9723;DHT22;4900;49.306;8.500;2022-07-29T06:34:08;27.24;51.40
9723;DHT22;4900;49.306;8.500;2022-07-29T06:37:11;27.27;51.22
9723;DHT22;4900;49.306;8.500;2022-07-29T06:40:14;27.35;51.22
9723;DHT22;4900;49.306;8.500;2022-07-29T06:43:38;27.27;51.30
9723;DHT22;4900;49.306;8.500;2022-07-29T06:46:41;27.48;51.18
9723;DHT22;4900;49.306;8.500;2022-07-29T06:49:44;27.59;51.00
9723;DHT22;4900;49.306;8.500;2022-07-29T06:52:47;27.89;50.63
9723;DHT22;4900;49.306;8.500;2022-07-29T06:55:50;28.19;49.72
9723;DHT22;4900;49.306;8.500;2022-07-29T06:58:53;28.37;49.57
9723;DHT22;4900;49.306;8.500;2022-07-29T07:01:56;28.40;49.51
9723;DHT22;4900;49.306;8.500;2022-07-29T07:04:59;28.58;49.18
9723;DHT22;4900;49.306;8.500;2022-07-29T07:08:03;28.86;48.74
9723;DHT22;4900;49.306;8.500;2022-07-29T07:11:06;28.95;48.62
9723;DHT22;4900;49.306;8.500;2022-07-29T07:14:10;29.38;47.76
9723;DHT22;4900;49.306;8.500;2022-07-29T07:17:13;29.99;46.67
9723;DHT22;4900;49.306;8.500;2022-07-29T07:20:16;30.10;46.32
9723;DHT22;4900;49.306;8.500;2022-07-29T07:23:19;29.84;46.85
9723;DHT22;4900;49.306;8.500;2022-07-29T07:26:22;29.02;48.37
9723;DHT22;4900;49.306;8.500;2022-07-29T07:29:25;29.17;48.64
9723;DHT22;4900;49.306;8.500;2022-07-29T07:32:28;29.54;48.20
9723;DHT22;4900;49.306;8.500;2022-07-29T07:35:32;30.30;47.52
9723;DHT22;4900;49.306;8.500;2022-07-29T07:38:35;31.54;45.49
9723;DHT22;4900;49.306;8.500;2022-07-29T07:41:38;32.32;44.00
9723;DHT22;4900;49.306;8.500;2022-07-29T07:44:41;32.79;42.80
9723;DHT22;4900;49.306;8.500;2022-07-29T07:47:44;33.20;41.46
9723;DHT22;4900;49.306;8.500;2022-07-29T07:50:47;33.27;40.87
9723;DHT22;4900;49.306;8.500;2022-07-29T07:53:52;33.27;41.28
9723;DHT22;4900;49.306;8.500;2022-07-29T07:56:55;33.47;41.22
9723;DHT22;4900;49.306;8.500;2022-07-29T07:59:57;34.22;39.81
9723;DHT22;4900;49.306;8.500;2022-07-29T08:03:01;34.92;38.67
9723;DHT22;4900;49.306;8.500;2022-07-29T08:06:05;35.95;37.19
9723;DHT22;4900;49.306;8.500;2022-07-29T08:09:09;36.20;36.30
9723;DHT22;4900;49.306;8.500;2022-07-29T08:12:12;36.67;35.74
9723;DHT22;4900;49.306;8.500;2022-07-29T08:15:15;36.98;35.02
9723;DHT22;4900;49.306;8.500;2022-07-29T08:18:18;37.94;34.04
9723;DHT22;4900;49.306;8.500;2022-07-29T08:21:21;37.69;34.04
9723;DHT22;4900;49.306;8.500;2022-07-29T08:24:24;36.80;35.11
9723;DHT22;4900;49.306;8.500;2022-07-29T08:27:47;36.18;35.71
9723;DHT22;4900;49.306;8.500;2022-07-29T08:30:50;35.66;36.52
9723;DHT22;4900;49.306;8.500;2022-07-29T08:33:53;35.19;37.37
9723;DHT22;4900;49.306;8.500;2022-07-29T08:36:56;35.43;36.86
9723;DHT22;4900;49.306;8.500;2022-07-29T08:39:59;35.73;36.69
9723;DHT22;4900;49.306;8.500;2022-07-29T08:43:07;35.88;36.28
9723;DHT22;4900;49.306;8.500;2022-07-29T08:46:11;36.22;36.17
9723;DHT22;4900;49.306;8.500;2022-07-29T08:49:14;36.70;35.79
9723;DHT22;4900;49.306;8.500;2022-07-29T08:52:17;37.62;33.96
9723;DHT22;4900;49.306;8.500;2022-07-29T08:55:21;38.14;33.06
9723;DHT22;4900;49.306;8.500;2022-07-29T08:58:25;38.34;32.61
9723;DHT22;4900;49.306;8.500;2022-07-29T09:01:29;38.32;32.52
9723;DHT22;4900;49.306;8.500;2022-07-29T09:04:35;38.00;32.47
9723;DHT22;4900;49.306;8.500;2022-07-29T09:07:39;38.01;32.40
9723;DHT22;4900;49.306;8.500;2022-07-29T09:10:43;38.17;32.18
9723;DHT22;4900;49.306;8.500;2022-07-29T09:13:46;37.25;32.84
9723;DHT22;4900;49.306;8.500;2022-07-29T09:16:51;37.13;33.13
9723;DHT22;4900;49.306;8.500;2022-07-29T09:20:08;36.45;33.83
9723;DHT22;4900;49.306;8.500;2022-07-29T09:23:12;36.79;33.54
9723;DHT22;4900;49.306;8.500;2022-07-29T09:26:15;37.49;32.77
9723;DHT22;4900;49.306;8.500;2022-07-29T09:29:22;37.42;32.60
9723;DHT22;4900;49.306;8.500;2022-07-29T09:32:25;37.93;31.88
9723;DHT22;4900;49.306;8.500;2022-07-29T09:35:29;38.41;31.22
9723;DHT22;4900;49.306;8.500;2022-07-29T09:38:33;38.93;30.88
9723;DHT22;4900;49.306;8.500;2022-07-29T09:45:33;40.24;28.95
9723;DHT22;4900;49.306;8.500;2022-07-29T09:48:36;40.40;28.65
9723;DHT22;4900;49.306;8.500;2022-07-29T09:51:39;40.81;28.30
9723;DHT22;4900;49.306;8.500;2022-07-29T09:54:43;41.16;27.45
9723;DHT22;4900;49.306;8.500;2022-07-29T09:57:46;41.65;26.94
9723;DHT22;4900;49.306;8.500;2022-07-29T10:00:51;41.34;26.84
9723;DHT22;4900;49.306;8.500;2022-07-29T10:03:54;41.82;26.01
9723;DHT22;4900;49.306;8.500;2022-07-29T10:07:01;41.96;26.11
9723;DHT22;4900;49.306;8.500;2022-07-29T10:10:05;42.61;25.72
9723;DHT22;4900;49.306;8.500;2022-07-29T10:13:11;42.81;25.32
9723;DHT22;4900;49.306;8.500;2022-07-29T10:16:15;42.65;24.97
9723;DHT22;4900;49.306;8.500;2022-07-29T10:19:19;42.58;24.83
9723;DHT22;4900;49.306;8.500;2022-07-29T10:22:23;42.90;24.61
9723;DHT22;4900;49.306;8.500;2022-07-29T10:25:26;43.24;24.53
9723;DHT22;4900;49.306;8.500;2022-07-29T10:28:31;43.23;24.52
9723;DHT22;4900;49.306;8.500;2022-07-29T10:35:28;43.61;23.91
9723;DHT22;4900;49.306;8.500;2022-07-29T10:39:11;43.27;24.07
9723;DHT22;4900;49.306;8.500;2022-07-29T10:42:23;43.22;23.69
9723;DHT22;4900;49.306;8.500;2022-07-29T10:45:28;43.22;24.17
9723;DHT22;4900;49.306;8.500;2022-07-29T10:48:32;42.90;24.30
9723;DHT22;4900;49.306;8.500;2022-07-29T10:54:53;43.15;23.96
9723;DHT22;4900;49.306;8.500;2022-07-29T10:58:16;43.58;23.62
9723;DHT22;4900;49.306;8.500;2022-07-29T11:01:30;44.40;22.84
9723;DHT22;4900;49.306;8.500;2022-07-29T11:08:16;44.68;22.24
9723;DHT22;4900;49.306;8.500;2022-07-29T11:20:59;44.68;22.42
9723;DHT22;4900;49.306;8.500;2022-07-29T11:24:13;45.32;22.12
9723;DHT22;4900;49.306;8.500;2022-07-29T11:27:19;45.76;22.11
9723;DHT22;4900;49.306;8.500;2022-07-29T11:30:48;44.91;22.06
9723;DHT22;4900;49.306;8.500;2022-07-29T11:33:52;44.68;22.48
9723;DHT22;4900;49.306;8.500;2022-07-29T11:37:14;45.46;21.51
9723;DHT22;4900;49.306;8.500;2022-07-29T11:40:17;45.74;21.43
9723;DHT22;4900;49.306;8.500;2022-07-29T11:43:46;46.07;21.18
9723;DHT22;4900;49.306;8.500;2022-07-29T11:46:50;45.96;21.35
9723;DHT22;4900;49.306;8.500;2022-07-29T11:49:56;46.04;21.20
9723;DHT22;4900;49.306;8.500;2022-07-29T11:53:01;46.10;21.07
9723;DHT22;4900;49.306;8.500;2022-07-29T11:56:08;46.34;21.07
9723;DHT22;4900;49.306;8.500;2022-07-29T11:59:11;46.15;21.01
9723;DHT22;4900;49.306;8.500;2022-07-29T12:02:15;46.87;20.60
9723;DHT22;4900;49.306;8.500;2022-07-29T12:05:19;46.29;20.86
9723;DHT22;4900;49.306;8.500;2022-07-29T12:08:23;46.00;21.08
9723;DHT22;4900;49.306;8.500;2022-07-29T12:11:28;46.70;20.86
9723;DHT22;4900;49.306;8.500;2022-07-29T12:14:32;46.83;20.80
9723;DHT22;4900;49.306;8.500;2022-07-29T12:17:35;47.41;20.35
9723;DHT22;4900;49.306;8.500;2022-07-29T12:20:40;47.88;20.03
9723;DHT22;4900;49.306;8.500;2022-07-29T12:23:52;46.65;20.57
9723;DHT22;4900;49.306;8.500;2022-07-29T12:26:58;45.23;21.21
9723;DHT22;4900;49.306;8.500;2022-07-29T12:30:05;43.65;22.42
9723;DHT22;4900;49.306;8.500;2022-07-29T12:33:27;43.51;22.60
9723;DHT22;4900;49.306;8.500;2022-07-29T12:36:31;43.29;22.62
9723;DHT22;4900;49.306;8.500;2022-07-29T12:39:35;42.45;23.18
9723;DHT22;4900;49.306;8.500;2022-07-29T12:42:38;42.30;22.78
9723;DHT22;4900;49.306;8.500;2022-07-29T12:45:48;42.27;22.99
9723;DHT22;4900;49.306;8.500;2022-07-29T12:48:54;41.99;23.44
9723;DHT22;4900;49.306;8.500;2022-07-29T12:51:57;41.65;23.87
9723;DHT22;4900;49.306;8.500;2022-07-29T12:55:01;40.82;24.22
9723;DHT22;4900;49.306;8.500;2022-07-29T12:58:04;39.75;25.96
9723;DHT22;4900;49.306;8.500;2022-07-29T13:01:14;39.35;26.12
9723;DHT22;4900;49.306;8.500;2022-07-29T13:04:26;38.65;26.98
9723;DHT22;4900;49.306;8.500;2022-07-29T13:07:32;37.86;28.03
9723;DHT22;4900;49.306;8.500;2022-07-29T13:10:37;37.38;28.98
9723;DHT22;4900;49.306;8.500;2022-07-29T13:13:51;37.04;28.96
9723;DHT22;4900;49.306;8.500;2022-07-29T13:17:13;36.94;29.29
9723;DHT22;4900;49.306;8.500;2022-07-29T13:20:16;36.94;29.48
9723;DHT22;4900;49.306;8.500;2022-07-29T13:23:19;36.88;29.52
9723;DHT22;4900;49.306;8.500;2022-07-29T13:26:23;37.17;28.77
9723;DHT22;4900;49.306;8.500;2022-07-29T13:29:26;36.94;28.87
9723;DHT22;4900;49.306;8.500;2022-07-29T13:32:30;36.87;28.55
9723;DHT22;4900;49.306;8.500;2022-07-29T13:35:33;37.21;28.51
9723;DHT22;4900;49.306;8.500;2022-07-29T13:38:36;37.32;28.43
9723;DHT22;4900;49.306;8.500;2022-07-29T13:41:39;37.51;28.07
9723;DHT22;4900;49.306;8.500;2022-07-29T13:44:42;37.56;26.97
9723;DHT22;4900;49.306;8.500;2022-07-29T13:47:45;37.28;26.82
9723;DHT22;4900;49.306;8.500;2022-07-29T13:50:48;37.10;26.40
9723;DHT22;4900;49.306;8.500;2022-07-29T13:53:52;36.57;26.79
9723;DHT22;4900;49.306;8.500;2022-07-29T13:56:55;36.48;27.57
9723;DHT22;4900;49.306;8.500;2022-07-29T13:59:58;36.52;27.41
9723;DHT22;4900;49.306;8.500;2022-07-29T14:03:01;36.08;27.86
9723;DHT22;4900;49.306;8.500;2022-07-29T14:06:04;35.80;28.31
9723;DHT22;4900;49.306;8.500;2022-07-29T14:09:07;35.36;29.05
9723;DHT22;4900;49.306;8.500;2022-07-29T14:12:11;34.68;30.92
9723;DHT22;4900;49.306;8.500;2022-07-29T14:15:14;34.73;30.90
9723;DHT22;4900;49.306;8.500;2022-07-29T14:18:17;34.26;32.37
9723;DHT22;4900;49.306;8.500;2022-07-29T14:21:20;34.43;32.17
9723;DHT22;4900;49.306;8.500;2022-07-29T14:24:23;34.31;31.91
9723;DHT22;4900;49.306;8.500;2022-07-29T14:27:26;34.27;31.89
9723;DHT22;4900;49.306;8.500;2022-07-29T14:30:29;34.49;31.71
9723;DHT22;4900;49.306;8.500;2022-07-29T14:33:32;34.66;32.16
9723;DHT22;4900;49.306;8.500;2022-07-29T14:36:35;34.94;31.34
9723;DHT22;4900;49.306;8.500;2022-07-29T14:39:38;35.19;30.42
9723;DHT22;4900;49.306;8.500;2022-07-29T14:42:41;35.69;29.87
9723;DHT22;4900;49.306;8.500;2022-07-29T14:45:44;35.94;28.90
9723;DHT22;4900;49.306;8.500;2022-07-29T14:48:47;36.60;28.00
9723;DHT22;4900;49.306;8.500;2022-07-29T14:51:50;37.07;27.17
9723;DHT22;4900;49.306;8.500;2022-07-29T14:54:54;37.22;26.67
9723;DHT22;4900;49.306;8.500;2022-07-29T14:57:57;37.11;26.26
9723;DHT22;4900;49.306;8.500;2022-07-29T15:01:01;37.01;26.55
9723;DHT22;4900;49.306;8.500;2022-07-29T15:04:04;37.01;26.43
9723;DHT22;4900;49.306;8.500;2022-07-29T15:07:08;37.49;26.38
9723;DHT22;4900;49.306;8.500;2022-07-29T15:10:11;38.04;26.86
9723;DHT22;4900;49.306;8.500;2022-07-29T15:13:14;37.58;26.26
9723;DHT22;4900;49.306;8.500;2022-07-29T15:16:17;37.96;25.53
9723;DHT22;4900;49.306;8.500;2022-07-29T15:19:20;37.29;25.20
9723;DHT22;4900;49.306;8.500;2022-07-29T15:22:23;37.46;24.95
9723;DHT22;4900;49.306;8.500;2022-07-29T15:25:26;37.79;25.10
9723;DHT22;4900;49.306;8.500;2022-07-29T15:28:29;37.69;25.19
9723;DHT22;4900;49.306;8.500;2022-07-29T15:31:32;38.10;24.92
9723;DHT22;4900;49.306;8.500;2022-07-29T15:34:36;38.82;24.40
9723;DHT22;4900;49.306;8.500;2022-07-29T15:37:39;38.97;24.13
9723;DHT22;4900;49.306;8.500;2022-07-29T15:40:43;39.09;24.05
9723;DHT22;4900;49.306;8.500;2022-07-29T15:43:47;38.65;23.56
9723;DHT22;4900;49.306;8.500;2022-07-29T15:46:51;38.68;23.19
9723;DHT22;4900;49.306;8.500;2022-07-29T15:50:07;38.52;23.14
9723;DHT22;4900;49.306;8.500;2022-07-29T15:53:14;38.04;23.56
9723;DHT22;4900;49.306;8.500;2022-07-29T15:56:17;37.84;23.69
9723;DHT22;4900;49.306;8.500;2022-07-29T15:59:21;37.73;23.53
9723;DHT22;4900;49.306;8.500;2022-07-29T16:02:24;37.46;24.05
9723;DHT22;4900;49.306;8.500;2022-07-29T16:05:28;37.35;24.06
9723;DHT22;4900;49.306;8.500;2022-07-29T16:08:31;37.07;24.30
9723;DHT22;4900;49.306;8.500;2022-07-29T16:11:34;36.73;24.55
9723;DHT22;4900;49.306;8.500;2022-07-29T16:14:38;36.33;25.00
9723;DHT22;4900;49.306;8.500;2022-07-29T16:17:41;36.27;25.05
9723;DHT22;4900;49.306;8.500;2022-07-29T16:20:44;36.02;25.50
9723;DHT22;4900;49.306;8.500;2022-07-29T16:23:47;36.46;25.56
9723;DHT22;4900;49.306;8.500;2022-07-29T16:26:50;36.70;25.10
9723;DHT22;4900;49.306;8.500;2022-07-29T16:29:54;36.94;24.55
9723;DHT22;4900;49.306;8.500;2022-07-29T16:32:57;37.10;24.31
9723;DHT22;4900;49.306;8.500;2022-07-29T16:36:00;37.11;24.53
9723;DHT22;4900;49.306;8.500;2022-07-29T16:39:03;37.48;23.62
9723;DHT22;4900;49.306;8.500;2022-07-29T16:42:07;37.37;23.24
9723;DHT22;4900;49.306;8.500;2022-07-29T16:45:10;37.62;22.73
9723;DHT22;4900;49.306;8.500;2022-07-29T16:48:14;37.87;22.62
9723;DHT22;4900;49.306;8.500;2022-07-29T16:51:17;37.83;22.39
9723;DHT22;4900;49.306;8.500;2022-07-29T16:54:20;37.70;22.67
9723;DHT22;4900;49.306;8.500;2022-07-29T16:57:23;37.31;23.00
9723;DHT22;4900;49.306;8.500;2022-07-29T17:00:26;37.20;23.57
9723;DHT22;4900;49.306;8.500;2022-07-29T17:03:29;37.31;23.40
9723;DHT22;4900;49.306;8.500;2022-07-29T17:06:37;36.50;23.87
9723;DHT22;4900;49.306;8.500;2022-07-29T17:09:41;36.18;23.77
9723;DHT22;4900;49.306;8.500;2022-07-29T17:12:45;35.91;24.26
9723;DHT22;4900;49.306;8.500;2022-07-29T17:15:48;35.66;24.65
9723;DHT22;4900;49.306;8.500;2022-07-29T17:18:52;35.43;25.04
9723;DHT22;4900;49.306;8.500;2022-07-29T17:21:56;35.18;25.48
9723;DHT22;4900;49.306;8.500;2022-07-29T17:24:59;34.84;25.93
9723;DHT22;4900;49.306;8.500;2022-07-29T17:28:03;34.49;26.30
9723;DHT22;4900;49.306;8.500;2022-07-29T17:31:07;34.26;26.60
9723;DHT22;4900;49.306;8.500;2022-07-29T17:34:10;34.06;26.92
9723;DHT22;4900;49.306;8.500;2022-07-29T17:37:14;33.92;27.01
9723;DHT22;4900;49.306;8.500;2022-07-29T17:40:17;33.78;27.10
9723;DHT22;4900;49.306;8.500;2022-07-29T17:43:20;33.73;26.71
9723;DHT22;4900;49.306;8.500;2022-07-29T17:46:24;33.40;26.06
9723;DHT22;4900;49.306;8.500;2022-07-29T17:49:28;33.33;26.09
9723;DHT22;4900;49.306;8.500;2022-07-29T17:52:32;33.13;26.30
9723;DHT22;4900;49.306;8.500;2022-07-29T17:55:35;32.99;25.99
9723;DHT22;4900;49.306;8.500;2022-07-29T17:58:38;32.70;25.98
9723;DHT22;4900;49.306;8.500;2022-07-29T18:01:41;32.57;26.10
9723;DHT22;4900;49.306;8.500;2022-07-29T18:04:44;32.58;26.27
9723;DHT22;4900;49.306;8.500;2022-07-29T18:07:47;32.50;26.34
9723;DHT22;4900;49.306;8.500;2022-07-29T18:10:50;32.70;26.21
9723;DHT22;4900;49.306;8.500;2022-07-29T18:13:53;32.61;26.35
9723;DHT22;4900;49.306;8.500;2022-07-29T18:16:56;32.53;26.09
9723;DHT22;4900;49.306;8.500;2022-07-29T18:19:58;32.30;26.67
9723;DHT22;4900;49.306;8.500;2022-07-29T18:23:02;32.10;26.64
9723;DHT22;4900;49.306;8.500;2022-07-29T18:26:05;31.92;26.81
9723;DHT22;4900;49.306;8.500;2022-07-29T18:29:09;31.77;27.10
9723;DHT22;4900;49.306;8.500;2022-07-29T18:32:12;31.64;27.70
9723;DHT22;4900;49.306;8.500;2022-07-29T18:35:16;31.44;28.37
9723;DHT22;4900;49.306;8.500;2022-07-29T18:38:20;31.26;28.56
9723;DHT22;4900;49.306;8.500;2022-07-29T18:41:24;31.12;28.79
9723;DHT22;4900;49.306;8.500;2022-07-29T18:44:27;30.98;29.04
9723;DHT22;4900;49.306;8.500;2022-07-29T18:47:30;30.86;29.37
9723;DHT22;4900;49.306;8.500;2022-07-29T18:50:33;30.71;29.69
9723;DHT22;4900;49.306;8.500;2022-07-29T18:53:37;30.55;30.28
9723;DHT22;4900;49.306;8.500;2022-07-29T18:56:41;30.44;30.79
9723;DHT22;4900;49.306;8.500;2022-07-29T18:59:44;30.31;31.49
9723;DHT22;4900;49.306;8.500;2022-07-29T19:02:47;30.17;32.58
9723;DHT22;4900;49.306;8.500;2022-07-29T19:05:50;29.85;33.71
9723;DHT22;4900;49.306;8.500;2022-07-29T19:08:53;29.66;33.88
9723;DHT22;4900;49.306;8.500;2022-07-29T19:11:56;29.45;34.29
9723;DHT22;4900;49.306;8.500;2022-07-29T19:14:59;29.25;34.00
9723;DHT22;4900;49.306;8.500;2022-07-29T19:18:02;29.02;35.40
9723;DHT22;4900;49.306;8.500;2022-07-29T19:21:06;28.75;36.95
9723;DHT22;4900;49.306;8.500;2022-07-29T19:24:08;28.69;38.11
9723;DHT22;4900;49.306;8.500;2022-07-29T19:27:12;28.67;39.18
9723;DHT22;4900;49.306;8.500;2022-07-29T19:30:15;28.54;40.17
9723;DHT22;4900;49.306;8.500;2022-07-29T19:33:18;28.41;40.68
9723;DHT22;4900;49.306;8.500;2022-07-29T19:36:22;28.34;41.01
9723;DHT22;4900;49.306;8.500;2022-07-29T19:39:25;28.23;41.87
9723;DHT22;4900;49.306;8.500;2022-07-29T19:42:28;28.14;42.18
9723;DHT22;4900;49.306;8.500;2022-07-29T19:45:31;28.03;42.50
9723;DHT22;4900;49.306;8.500;2022-07-29T19:48:35;27.88;42.96
9723;DHT22;4900;49.306;8.500;2022-07-29T19:51:39;27.71;43.38
9723;DHT22;4900;49.306;8.500;2022-07-29T19:54:43;27.68;43.74
9723;DHT22;4900;49.306;8.500;2022-07-29T19:57:46;27.58;43.71
9723;DHT22;4900;49.306;8.500;2022-07-29T20:00:49;27.54;43.80
9723;DHT22;4900;49.306;8.500;2022-07-29T20:03:52;27.50;43.96
9723;DHT22;4900;49.306;8.500;2022-07-29T20:06:55;27.44;43.96
9723;DHT22;4900;49.306;8.500;2022-07-29T20:10:03;27.38;44.06
9723;DHT22;4900;49.306;8.500;2022-07-29T20:13:07;27.38;44.18
9723;DHT22;4900;49.306;8.500;2022-07-29T20:16:10;27.33;44.12
9723;DHT22;4900;49.306;8.500;2022-07-29T20:19:13;27.35;44.18
9723;DHT22;4900;49.306;8.500;2022-07-29T20:22:17;27.27;44.59
9723;DHT22;4900;49.306;8.500;2022-07-29T20:25:21;27.20;44.97
9723;DHT22;4900;49.306;8.500;2022-07-29T20:28:24;27.07;45.45
9723;DHT22;4900;49.306;8.500;2022-07-29T20:31:27;27.06;45.41
9723;DHT22;4900;49.306;8.500;2022-07-29T20:34:32;27.04;45.63
9723;DHT22;4900;49.306;8.500;2022-07-29T20:37:35;26.99;45.71
9723;DHT22;4900;49.306;8.500;2022-07-29T20:40:38;26.91;46.03
9723;DHT22;4900;49.306;8.500;2022-07-29T20:43:41;26.75;46.15
9723;DHT22;4900;49.306;8.500;2022-07-29T20:46:45;26.65;46.71
9723;DHT22;4900;49.306;8.500;2022-07-29T20:49:51;26.57;46.88